This is the latest recevied weather packets stored in our database for station/object EA1ZE. If no packets are shown the sender has not sent any weather packets the latest 10 day(s).
| Time | Temp. | Humidity | Pressure | Rain* | Wind** | Luminosity | Snow |
|---|---|---|---|---|---|---|---|
| 1778147120 | 16.11° C | 60% | 1010.4 hPa | 0 mm | - | - | - |
| 1778146217 | 15.56° C | 61% | 1010.4 hPa | 0 mm | - | - | - |
| 1778145316 | 15° C | 62% | 1010.5 hPa | 0 mm | - | - | - |
| 1778144411 | 14.44° C | 66% | 1010.4 hPa | 0 mm | - | - | - |
| 1778143512 | 13.33° C | 69% | 1010.6 hPa | 0 mm | - | - | - |
| 1778142605 | 12.22° C | 74% | 1010.6 hPa | 0 mm | - | - | - |
| 1778141759 | 11.11° C | 76% | 1010.6 hPa | 0 mm | - | - | - |
| 1778140859 | 10.56° C | 77% | 1010.7 hPa | 0 mm | - | - | - |
| 1778139959 | 10.56° C | 76% | 1010.7 hPa | 0 mm | - | - | - |
| 1778139066 | 10.56° C | 78% | 1010.7 hPa | 0 mm | - | - | - |
| 1778138156 | 10° C | 81% | 1010.8 hPa | 0 mm | - | - | - |
| 1778137267 | 9.44° C | 81% | 1010.9 hPa | 0 mm | - | - | - |
| 1778136360 | 9.44° C | 83% | 1011 hPa | 0 mm | - | - | - |
| 1778135457 | 8.89° C | 85% | 1011 hPa | 0 mm | - | - | - |
| 1778134555 | 7.78° C | 86% | 1011 hPa | 0 mm | - | - | - |
| 1778133655 | 7.22° C | 87% | 1010.7 hPa | 0 mm | - | - | - |
| 1778132754 | 7.22° C | 87% | 1010.7 hPa | 0 mm | - | - | - |
| 1778131852 | 7.22° C | 87% | 1010.9 hPa | 0 mm | - | - | - |
| 1778130959 | 7.22° C | 87% | 1010.8 hPa | 0 mm | - | - | - |
| 1778130065 | 7.22° C | 86% | 1010.6 hPa | 0 mm | - | - | - |
| 1778129154 | 7.22° C | 86% | 1010.7 hPa | 0 mm | - | - | - |
| 1778128246 | 7.78° C | 85% | 1010.8 hPa | 0 mm | - | - | - |
| 1778127345 | 8.33° C | 84% | 1010.8 hPa | 0 mm | - | - | - |
| 1778126443 | 8.89° C | 81% | 1010.8 hPa | 0 mm | - | - | - |
| 1778125541 | 9.44° C | 80% | 1010.9 hPa | 0 mm | - | - | - |
* Rain latest hour (hover to see other rain measurements)
** Current wind speed in m/s (hover to see current wind gust speed)